sensor_id;sensor_type;location;lat;lon;timestamp;temperature;humidity
42227;DHT22;27892;52.378;13.122;2022-12-18T00:00:40;-1.70;64.50
42227;DHT22;27892;52.378;13.122;2022-12-18T00:03:06;-1.70;65.20
42227;DHT22;27892;52.378;13.122;2022-12-18T00:05:32;-1.50;65.70
42227;DHT22;27892;52.378;13.122;2022-12-18T00:07:58;-1.40;65.30
42227;DHT22;27892;52.378;13.122;2022-12-18T00:10:24;-1.60;64.30
42227;DHT22;27892;52.378;13.122;2022-12-18T00:12:49;-1.60;65.20
42227;DHT22;27892;52.378;13.122;2022-12-18T00:15:15;-1.80;65.10
42227;DHT22;27892;52.378;13.122;2022-12-18T00:17:41;-1.70;66.40
42227;DHT22;27892;52.378;13.122;2022-12-18T00:20:07;-1.70;66.10
42227;DHT22;27892;52.378;13.122;2022-12-18T00:22:33;-1.90;66.70
42227;DHT22;27892;52.378;13.122;2022-12-18T00:24:59;-1.70;67.20
42227;DHT22;27892;52.378;13.122;2022-12-18T00:27:25;-1.60;67.00
42227;DHT22;27892;52.378;13.122;2022-12-18T00:29:50;-1.70;66.40
42227;DHT22;27892;52.378;13.122;2022-12-18T00:32:16;-1.70;66.30
42227;DHT22;27892;52.378;13.122;2022-12-18T00:34:42;-1.70;66.50
42227;DHT22;27892;52.378;13.122;2022-12-18T00:37:07;-1.60;66.40
42227;DHT22;27892;52.378;13.122;2022-12-18T00:39:33;-1.50;65.80
42227;DHT22;27892;52.378;13.122;2022-12-18T00:41:59;-1.60;65.80
42227;DHT22;27892;52.378;13.122;2022-12-18T00:44:43;-1.60;65.80
42227;DHT22;27892;52.378;13.122;2022-12-18T00:47:09;-2.00;66.20
42227;DHT22;27892;52.378;13.122;2022-12-18T00:49:35;-2.00;67.40
42227;DHT22;27892;52.378;13.122;2022-12-18T00:52:01;-2.40;67.90
42227;DHT22;27892;52.378;13.122;2022-12-18T00:54:26;-2.40;68.50
42227;DHT22;27892;52.378;13.122;2022-12-18T00:56:52;-2.30;68.80
42227;DHT22;27892;52.378;13.122;2022-12-18T00:59:20;-2.30;69.00
42227;DHT22;27892;52.378;13.122;2022-12-18T01:01:46;-2.40;68.70
42227;DHT22;27892;52.378;13.122;2022-12-18T01:04:12;-2.20;69.40
42227;DHT22;27892;52.378;13.122;2022-12-18T01:06:38;-2.10;68.70
42227;DHT22;27892;52.378;13.122;2022-12-18T01:09:04;-2.00;68.60
42227;DHT22;27892;52.378;13.122;2022-12-18T01:11:30;-2.10;67.90
42227;DHT22;27892;52.378;13.122;2022-12-18T01:13:56;-2.10;68.60
42227;DHT22;27892;52.378;13.122;2022-12-18T01:16:22;-2.20;68.10
42227;DHT22;27892;52.378;13.122;2022-12-18T01:18:51;-2.20;68.30
42227;DHT22;27892;52.378;13.122;2022-12-18T01:21:17;-2.00;68.90
42227;DHT22;27892;52.378;13.122;2022-12-18T01:23:43;-1.90;68.40
42227;DHT22;27892;52.378;13.122;2022-12-18T01:26:10;-1.90;67.90
42227;DHT22;27892;52.378;13.122;2022-12-18T01:28:36;-1.80;67.50
42227;DHT22;27892;52.378;13.122;2022-12-18T01:31:13;-1.80;67.40
42227;DHT22;27892;52.378;13.122;2022-12-18T01:33:39;-1.80;67.30
42227;DHT22;27892;52.378;13.122;2022-12-18T01:36:05;-1.70;67.90
42227;DHT22;27892;52.378;13.122;2022-12-18T01:38:31;-1.50;67.60
42227;DHT22;27892;52.378;13.122;2022-12-18T01:40:58;-1.40;67.50
42227;DHT22;27892;52.378;13.122;2022-12-18T01:43:56;-1.50;66.20
42227;DHT22;27892;52.378;13.122;2022-12-18T01:46:23;-1.60;66.40
42227;DHT22;27892;52.378;13.122;2022-12-18T01:49:01;-1.80;66.40
42227;DHT22;27892;52.378;13.122;2022-12-18T01:51:27;-1.90;67.00
42227;DHT22;27892;52.378;13.122;2022-12-18T01:53:55;-1.90;67.10
42227;DHT22;27892;52.378;13.122;2022-12-18T01:56:21;-1.80;67.50
42227;DHT22;27892;52.378;13.122;2022-12-18T01:59:04;-1.80;66.80
42227;DHT22;27892;52.378;13.122;2022-12-18T02:01:32;-1.70;67.10
42227;DHT22;27892;52.378;13.122;2022-12-18T02:06:52;-1.80;66.90
42227;DHT22;27892;52.378;13.122;2022-12-18T02:09:30;-1.70;67.60
42227;DHT22;27892;52.378;13.122;2022-12-18T02:12:26;-1.60;67.20
42227;DHT22;27892;52.378;13.122;2022-12-18T02:17:47;-1.40;66.20
42227;DHT22;27892;52.378;13.122;2022-12-18T02:28:29;-1.60;66.10
42227;DHT22;27892;52.378;13.122;2022-12-18T02:30:58;-1.70;66.00
42227;DHT22;27892;52.378;13.122;2022-12-18T02:33:25;-1.90;65.50
42227;DHT22;27892;52.378;13.122;2022-12-18T02:35:54;-1.80;66.20
42227;DHT22;27892;52.378;13.122;2022-12-18T02:38:21;-2.00;66.00
42227;DHT22;27892;52.378;13.122;2022-12-18T02:40:48;-2.10;66.70
42227;DHT22;27892;52.378;13.122;2022-12-18T02:43:16;-1.90;67.50
42227;DHT22;27892;52.378;13.122;2022-12-18T02:45:50;-1.70;67.10
42227;DHT22;27892;52.378;13.122;2022-12-18T02:48:22;-1.70;66.40
42227;DHT22;27892;52.378;13.122;2022-12-18T02:53:43;-1.50;66.70
42227;DHT22;27892;52.378;13.122;2022-12-18T02:56:41;-1.40;65.90
42227;DHT22;27892;52.378;13.122;2022-12-18T02:59:29;-1.40;65.50
42227;DHT22;27892;52.378;13.122;2022-12-18T03:02:07;-1.50;64.90
42227;DHT22;27892;52.378;13.122;2022-12-18T03:04:42;-1.50;65.50
42227;DHT22;27892;52.378;13.122;2022-12-18T03:07:18;-1.40;65.70
42227;DHT22;27892;52.378;13.122;2022-12-18T03:09:49;-1.40;65.30
42227;DHT22;27892;52.378;13.122;2022-12-18T03:12:27;-1.30;65.20
42227;DHT22;27892;52.378;13.122;2022-12-18T03:17:28;-1.60;65.10
42227;DHT22;27892;52.378;13.122;2022-12-18T03:19:58;-1.80;64.60
42227;DHT22;27892;52.378;13.122;2022-12-18T03:22:27;-1.70;65.50
42227;DHT22;27892;52.378;13.122;2022-12-18T03:25:14;-1.80;65.10
42227;DHT22;27892;52.378;13.122;2022-12-18T03:28:01;-1.90;66.20
42227;DHT22;27892;52.378;13.122;2022-12-18T03:30:49;-1.80;65.80
42227;DHT22;27892;52.378;13.122;2022-12-18T03:33:38;-2.00;65.50
42227;DHT22;27892;52.378;13.122;2022-12-18T03:36:25;-2.10;65.60
42227;DHT22;27892;52.378;13.122;2022-12-18T03:39:11;-2.20;66.10
42227;DHT22;27892;52.378;13.122;2022-12-18T03:45:07;-2.10;67.20
42227;DHT22;27892;52.378;13.122;2022-12-18T03:50:33;-1.80;66.70
42227;DHT22;27892;52.378;13.122;2022-12-18T03:53:24;-1.70;66.40
42227;DHT22;27892;52.378;13.122;2022-12-18T03:55:53;-1.60;65.80
42227;DHT22;27892;52.378;13.122;2022-12-18T03:58:23;-1.70;65.10
42227;DHT22;27892;52.378;13.122;2022-12-18T04:00:51;-1.90;65.20
42227;DHT22;27892;52.378;13.122;2022-12-18T04:03:18;-2.00;65.60
42227;DHT22;27892;52.378;13.122;2022-12-18T04:05:48;-1.90;66.10
42227;DHT22;27892;52.378;13.122;2022-12-18T04:08:14;-1.80;66.30
42227;DHT22;27892;52.378;13.122;2022-12-18T04:10:40;-1.70;65.70
42227;DHT22;27892;52.378;13.122;2022-12-18T04:13:06;-2.00;64.80
42227;DHT22;27892;52.378;13.122;2022-12-18T04:15:34;-2.10;65.30
42227;DHT22;27892;52.378;13.122;2022-12-18T04:18:01;-2.10;66.20
42227;DHT22;27892;52.378;13.122;2022-12-18T04:20:27;-2.30;65.90
42227;DHT22;27892;52.378;13.122;2022-12-18T04:22:52;-2.20;66.50
42227;DHT22;27892;52.378;13.122;2022-12-18T04:25:18;-2.10;66.50
42227;DHT22;27892;52.378;13.122;2022-12-18T04:27:44;-2.10;65.80
42227;DHT22;27892;52.378;13.122;2022-12-18T04:30:10;-2.10;65.80
42227;DHT22;27892;52.378;13.122;2022-12-18T04:32:35;-2.30;65.80
42227;DHT22;27892;52.378;13.122;2022-12-18T04:35:01;-2.20;66.90
42227;DHT22;27892;52.378;13.122;2022-12-18T04:37:29;-2.20;66.50
42227;DHT22;27892;52.378;13.122;2022-12-18T04:39:55;-2.20;66.00
42227;DHT22;27892;52.378;13.122;2022-12-18T04:42:21;-2.10;66.20
42227;DHT22;27892;52.378;13.122;2022-12-18T04:44:46;-2.10;66.20
42227;DHT22;27892;52.378;13.122;2022-12-18T04:47:12;-2.30;66.00
42227;DHT22;27892;52.378;13.122;2022-12-18T04:49:38;-2.40;66.60
42227;DHT22;27892;52.378;13.122;2022-12-18T04:52:03;-2.20;67.30
42227;DHT22;27892;52.378;13.122;2022-12-18T04:54:29;-2.20;66.60
42227;DHT22;27892;52.378;13.122;2022-12-18T04:56:55;-2.20;66.20
42227;DHT22;27892;52.378;13.122;2022-12-18T04:59:20;-2.40;66.50
42227;DHT22;27892;52.378;13.122;2022-12-18T05:01:46;-2.50;67.10
42227;DHT22;27892;52.378;13.122;2022-12-18T05:04:12;-2.30;67.70
42227;DHT22;27892;52.378;13.122;2022-12-18T05:06:37;-2.30;67.20
42227;DHT22;27892;52.378;13.122;2022-12-18T05:09:03;-2.20;67.60
42227;DHT22;27892;52.378;13.122;2022-12-18T05:11:29;-2.10;67.60
42227;DHT22;27892;52.378;13.122;2022-12-18T05:13:54;-2.20;66.80
42227;DHT22;27892;52.378;13.122;2022-12-18T05:16:20;-2.00;67.50
42227;DHT22;27892;52.378;13.122;2022-12-18T05:18:46;-1.80;67.60
42227;DHT22;27892;52.378;13.122;2022-12-18T05:21:11;-1.70;67.00
42227;DHT22;27892;52.378;13.122;2022-12-18T05:23:37;-1.50;66.90
42227;DHT22;27892;52.378;13.122;2022-12-18T05:26:04;-1.50;65.90
42227;DHT22;27892;52.378;13.122;2022-12-18T05:28:32;-1.50;65.40
42227;DHT22;27892;52.378;13.122;2022-12-18T05:31:00;-1.70;65.40
42227;DHT22;27892;52.378;13.122;2022-12-18T05:33:29;-1.90;65.50
42227;DHT22;27892;52.378;13.122;2022-12-18T05:35:59;-1.80;66.90
42227;DHT22;27892;52.378;13.122;2022-12-18T05:38:26;-1.90;66.30
42227;DHT22;27892;52.378;13.122;2022-12-18T05:40:52;-1.80;67.30
42227;DHT22;27892;52.378;13.122;2022-12-18T05:43:19;-1.70;66.80
42227;DHT22;27892;52.378;13.122;2022-12-18T05:45:45;-1.70;66.40
42227;DHT22;27892;52.378;13.122;2022-12-18T05:48:11;-1.50;67.50
42227;DHT22;27892;52.378;13.122;2022-12-18T05:50:39;-1.40;66.30
42227;DHT22;27892;52.378;13.122;2022-12-18T05:53:05;-1.40;65.50
42227;DHT22;27892;52.378;13.122;2022-12-18T05:55:39;-1.50;65.70
42227;DHT22;27892;52.378;13.122;2022-12-18T05:58:06;-1.60;66.00
42227;DHT22;27892;52.378;13.122;2022-12-18T06:00:33;-1.60;66.60
42227;DHT22;27892;52.378;13.122;2022-12-18T06:03:00;-1.50;67.10
42227;DHT22;27892;52.378;13.122;2022-12-18T06:05:26;-1.40;67.10
42227;DHT22;27892;52.378;13.122;2022-12-18T06:07:52;-1.50;66.10
42227;DHT22;27892;52.378;13.122;2022-12-18T06:10:18;-1.50;66.70
42227;DHT22;27892;52.378;13.122;2022-12-18T06:12:44;-1.50;66.90
42227;DHT22;27892;52.378;13.122;2022-12-18T06:15:10;-1.40;66.40
42227;DHT22;27892;52.378;13.122;2022-12-18T06:17:36;-1.40;65.80
42227;DHT22;27892;52.378;13.122;2022-12-18T06:20:03;-1.50;66.10
42227;DHT22;27892;52.378;13.122;2022-12-18T06:22:31;-1.70;66.40
42227;DHT22;27892;52.378;13.122;2022-12-18T06:24:57;-1.80;67.20
42227;DHT22;27892;52.378;13.122;2022-12-18T06:27:22;-1.90;67.60
42227;DHT22;27892;52.378;13.122;2022-12-18T06:29:48;-1.90;68.10
42227;DHT22;27892;52.378;13.122;2022-12-18T06:32:14;-1.80;68.40
42227;DHT22;27892;52.378;13.122;2022-12-18T06:34:39;-1.80;68.20
42227;DHT22;27892;52.378;13.122;2022-12-18T06:37:05;-1.70;68.30
42227;DHT22;27892;52.378;13.122;2022-12-18T06:39:34;-1.50;68.40
42227;DHT22;27892;52.378;13.122;2022-12-18T06:41:59;-1.40;67.90
42227;DHT22;27892;52.378;13.122;2022-12-18T06:44:25;-1.60;66.90
42227;DHT22;27892;52.378;13.122;2022-12-18T06:46:50;-1.60;67.20
42227;DHT22;27892;52.378;13.122;2022-12-18T06:49:16;-1.60;67.50
42227;DHT22;27892;52.378;13.122;2022-12-18T06:51:42;-1.60;67.30
42227;DHT22;27892;52.378;13.122;2022-12-18T06:54:08;-1.50;68.00
42227;DHT22;27892;52.378;13.122;2022-12-18T06:56:34;-1.40;67.50
42227;DHT22;27892;52.378;13.122;2022-12-18T06:59:00;-1.50;66.90
42227;DHT22;27892;52.378;13.122;2022-12-18T07:01:25;-1.60;67.90
42227;DHT22;27892;52.378;13.122;2022-12-18T07:03:53;-1.60;68.00
42227;DHT22;27892;52.378;13.122;2022-12-18T07:06:21;-1.50;68.50
42227;DHT22;27892;52.378;13.122;2022-12-18T07:08:48;-1.30;68.50
42227;DHT22;27892;52.378;13.122;2022-12-18T07:11:15;-1.30;67.70
42227;DHT22;27892;52.378;13.122;2022-12-18T07:13:41;-1.40;67.70
42227;DHT22;27892;52.378;13.122;2022-12-18T07:16:09;-1.30;68.10
42227;DHT22;27892;52.378;13.122;2022-12-18T07:18:35;-1.20;68.00
42227;DHT22;27892;52.378;13.122;2022-12-18T07:21:09;-1.20;67.60
42227;DHT22;27892;52.378;13.122;2022-12-18T07:23:36;-1.20;67.70
42227;DHT22;27892;52.378;13.122;2022-12-18T07:26:07;-1.30;67.60
42227;DHT22;27892;52.378;13.122;2022-12-18T07:28:35;-1.60;68.30
42227;DHT22;27892;52.378;13.122;2022-12-18T07:31:20;-1.50;69.10
42227;DHT22;27892;52.378;13.122;2022-12-18T07:33:46;-1.40;69.30
42227;DHT22;27892;52.378;13.122;2022-12-18T07:36:13;-1.30;69.20
42227;DHT22;27892;52.378;13.122;2022-12-18T07:38:38;-1.20;69.00
42227;DHT22;27892;52.378;13.122;2022-12-18T07:41:06;-1.40;68.60
42227;DHT22;27892;52.378;13.122;2022-12-18T07:43:33;-1.40;69.30
42227;DHT22;27892;52.378;13.122;2022-12-18T07:45:59;-1.20;69.50
42227;DHT22;27892;52.378;13.122;2022-12-18T07:48:25;-1.40;68.80
42227;DHT22;27892;52.378;13.122;2022-12-18T07:50:51;-1.60;68.90
42227;DHT22;27892;52.378;13.122;2022-12-18T07:53:16;-1.60;69.90
42227;DHT22;27892;52.378;13.122;2022-12-18T07:55:42;-1.60;69.50
42227;DHT22;27892;52.378;13.122;2022-12-18T07:58:08;-1.70;69.80
42227;DHT22;27892;52.378;13.122;2022-12-18T08:00:34;-2.00;70.20
42227;DHT22;27892;52.378;13.122;2022-12-18T08:03:00;-1.70;70.90
42227;DHT22;27892;52.378;13.122;2022-12-18T08:05:26;-1.80;69.70
42227;DHT22;27892;52.378;13.122;2022-12-18T08:07:52;-1.60;70.20
42227;DHT22;27892;52.378;13.122;2022-12-18T08:10:18;-1.60;70.60
42227;DHT22;27892;52.378;13.122;2022-12-18T08:12:44;-1.70;69.70
42227;DHT22;27892;52.378;13.122;2022-12-18T08:15:10;-1.80;70.10
42227;DHT22;27892;52.378;13.122;2022-12-18T08:17:36;-1.70;70.20
42227;DHT22;27892;52.378;13.122;2022-12-18T08:20:02;-1.90;70.20
42227;DHT22;27892;52.378;13.122;2022-12-18T08:22:28;-2.10;70.40
42227;DHT22;27892;52.378;13.122;2022-12-18T08:24:54;-2.10;71.20
42227;DHT22;27892;52.378;13.122;2022-12-18T08:27:20;-1.90;71.20
42227;DHT22;27892;52.378;13.122;2022-12-18T08:29:45;-1.80;70.10
42227;DHT22;27892;52.378;13.122;2022-12-18T08:32:11;-1.60;70.10
42227;DHT22;27892;52.378;13.122;2022-12-18T08:34:37;-1.40;69.90
42227;DHT22;27892;52.378;13.122;2022-12-18T08:37:03;-1.40;69.20
42227;DHT22;27892;52.378;13.122;2022-12-18T08:39:29;-1.30;69.00
42227;DHT22;27892;52.378;13.122;2022-12-18T08:41:55;-1.40;68.20
42227;DHT22;27892;52.378;13.122;2022-12-18T08:44:39;-1.40;68.60
42227;DHT22;27892;52.378;13.122;2022-12-18T08:47:06;-1.30;68.90
42227;DHT22;27892;52.378;13.122;2022-12-18T08:49:32;-1.30;67.80
42227;DHT22;27892;52.378;13.122;2022-12-18T08:51:57;-1.20;68.60
42227;DHT22;27892;52.378;13.122;2022-12-18T08:54:24;-1.50;67.60
42227;DHT22;27892;52.378;13.122;2022-12-18T08:56:50;-1.50;68.20
42227;DHT22;27892;52.378;13.122;2022-12-18T08:59:17;-1.50;68.70
42227;DHT22;27892;52.378;13.122;2022-12-18T09:01:43;-1.30;69.00
42227;DHT22;27892;52.378;13.122;2022-12-18T09:04:09;-1.10;68.90
42227;DHT22;27892;52.378;13.122;2022-12-18T09:06:35;-1.00;68.40
42227;DHT22;27892;52.378;13.122;2022-12-18T09:09:02;-0.90;67.70
42227;DHT22;27892;52.378;13.122;2022-12-18T09:11:29;-0.90;67.40
42227;DHT22;27892;52.378;13.122;2022-12-18T09:13:55;-1.20;66.70
42227;DHT22;27892;52.378;13.122;2022-12-18T09:16:21;-1.20;68.20
42227;DHT22;27892;52.378;13.122;2022-12-18T09:18:48;-1.10;68.40
42227;DHT22;27892;52.378;13.122;2022-12-18T09:21:19;-1.10;67.50
42227;DHT22;27892;52.378;13.122;2022-12-18T09:23:50;-1.20;67.80
42227;DHT22;27892;52.378;13.122;2022-12-18T09:26:16;-1.00;68.60
42227;DHT22;27892;52.378;13.122;2022-12-18T09:28:42;-1.00;67.60
42227;DHT22;27892;52.378;13.122;2022-12-18T09:31:08;-1.00;67.90
42227;DHT22;27892;52.378;13.122;2022-12-18T09:33:36;-0.90;68.30
42227;DHT22;27892;52.378;13.122;2022-12-18T09:36:03;-1.00;66.80
42227;DHT22;27892;52.378;13.122;2022-12-18T09:38:29;-0.90;67.80
42227;DHT22;27892;52.378;13.122;2022-12-18T09:41:03;-0.70;67.30
42227;DHT22;27892;52.378;13.122;2022-12-18T09:43:37;-0.60;66.80
42227;DHT22;27892;52.378;13.122;2022-12-18T09:46:10;-0.60;66.40
42227;DHT22;27892;52.378;13.122;2022-12-18T09:48:47;-0.80;66.10
42227;DHT22;27892;52.378;13.122;2022-12-18T09:51:23;-0.60;67.20
42227;DHT22;27892;52.378;13.122;2022-12-18T09:53:55;-0.80;66.60
42227;DHT22;27892;52.378;13.122;2022-12-18T09:56:22;-0.90;67.00
42227;DHT22;27892;52.378;13.122;2022-12-18T09:58:59;-0.80;67.70
42227;DHT22;27892;52.378;13.122;2022-12-18T10:01:27;-0.90;66.70
42227;DHT22;27892;52.378;13.122;2022-12-18T10:03:53;-0.80;67.60
42227;DHT22;27892;52.378;13.122;2022-12-18T10:09:44;-0.60;67.20
42227;DHT22;27892;52.378;13.122;2022-12-18T10:20:02;-0.10;66.60
42227;DHT22;27892;52.378;13.122;2022-12-18T10:22:47;-0.10;66.00
42227;DHT22;27892;52.378;13.122;2022-12-18T10:27:45;-0.50;65.10
42227;DHT22;27892;52.378;13.122;2022-12-18T10:30:16;-1.10;67.20
42227;DHT22;27892;52.378;13.122;2022-12-18T10:32:42;-0.80;68.40
42227;DHT22;27892;52.378;13.122;2022-12-18T10:35:19;-0.70;67.80
42227;DHT22;27892;52.378;13.122;2022-12-18T10:40:57;-0.60;67.40
42227;DHT22;27892;52.378;13.122;2022-12-18T10:46:19;-0.90;67.40
42227;DHT22;27892;52.378;13.122;2022-12-18T10:48:55;-0.60;67.90
42227;DHT22;27892;52.378;13.122;2022-12-18T10:51:33;-0.60;67.20
42227;DHT22;27892;52.378;13.122;2022-12-18T10:54:21;-0.80;66.70
42227;DHT22;27892;52.378;13.122;2022-12-18T10:56:47;-1.00;67.70
42227;DHT22;27892;52.378;13.122;2022-12-18T10:59:15;-1.20;69.10
42227;DHT22;27892;52.378;13.122;2022-12-18T11:01:57;-1.20;69.20
42227;DHT22;27892;52.378;13.122;2022-12-18T11:04:27;-1.20;69.30
42227;DHT22;27892;52.378;13.122;2022-12-18T11:09:28;-0.90;68.30
42227;DHT22;27892;52.378;13.122;2022-12-18T11:11:56;-0.80;68.80
42227;DHT22;27892;52.378;13.122;2022-12-18T11:17:21;-0.70;67.90
42227;DHT22;27892;52.378;13.122;2022-12-18T11:19:58;-0.70;68.20
42227;DHT22;27892;52.378;13.122;2022-12-18T11:22:27;-0.60;67.80
42227;DHT22;27892;52.378;13.122;2022-12-18T11:27:38;-0.30;67.80
42227;DHT22;27892;52.378;13.122;2022-12-18T11:32:58;-0.40;67.50
42227;DHT22;27892;52.378;13.122;2022-12-18T11:35:38;-0.20;68.00
42227;DHT22;27892;52.378;13.122;2022-12-18T11:38:35;-0.10;67.00
42227;DHT22;27892;52.378;13.122;2022-12-18T11:41:05;-0.10;66.10
42227;DHT22;27892;52.378;13.122;2022-12-18T11:43:43;-0.10;66.80
42227;DHT22;27892;52.378;13.122;2022-12-18T11:46:17;0.00;66.90
42227;DHT22;27892;52.378;13.122;2022-12-18T11:48:58;0.10;66.70
42227;DHT22;27892;52.378;13.122;2022-12-18T11:51:33;0.00;65.90
42227;DHT22;27892;52.378;13.122;2022-12-18T11:54:01;-0.20;66.50
42227;DHT22;27892;52.378;13.122;2022-12-18T11:56:36;-0.30;66.60
42227;DHT22;27892;52.378;13.122;2022-12-18T11:59:15;-0.40;67.40
42227;DHT22;27892;52.378;13.122;2022-12-18T12:01:55;-0.30;68.00
42227;DHT22;27892;52.378;13.122;2022-12-18T12:04:40;-0.40;67.20
42227;DHT22;27892;52.378;13.122;2022-12-18T12:09:57;-0.30;68.20
42227;DHT22;27892;52.378;13.122;2022-12-18T12:23:30;0.50;67.00
42227;DHT22;27892;52.378;13.122;2022-12-18T12:26:10;0.70;67.40
42227;DHT22;27892;52.378;13.122;2022-12-18T12:29:13;0.80;66.90
42227;DHT22;27892;52.378;13.122;2022-12-18T12:31:58;0.80;66.00
42227;DHT22;27892;52.378;13.122;2022-12-18T12:34:44;0.80;66.10
42227;DHT22;27892;52.378;13.122;2022-12-18T12:40:01;0.60;65.40
42227;DHT22;27892;52.378;13.122;2022-12-18T12:42:58;0.60;65.90
42227;DHT22;27892;52.378;13.122;2022-12-18T12:45:54;0.70;65.90
42227;DHT22;27892;52.378;13.122;2022-12-18T12:51:19;0.30;66.70
42227;DHT22;27892;52.378;13.122;2022-12-18T12:53:46;0.30;67.20
42227;DHT22;27892;52.378;13.122;2022-12-18T12:56:15;0.40;67.30
42227;DHT22;27892;52.378;13.122;2022-12-18T13:07:56;0.40;66.60
42227;DHT22;27892;52.378;13.122;2022-12-18T13:10:31;0.30;67.90
42227;DHT22;27892;52.378;13.122;2022-12-18T13:15:38;0.20;67.30
42227;DHT22;27892;52.378;13.122;2022-12-18T13:20:36;0.10;68.30
42227;DHT22;27892;52.378;13.122;2022-12-18T13:31:02;0.40;68.20
42227;DHT22;27892;52.378;13.122;2022-12-18T13:36:03;0.10;68.60
42227;DHT22;27892;52.378;13.122;2022-12-18T13:38:35;0.00;69.40
42227;DHT22;27892;52.378;13.122;2022-12-18T13:43:54;0.10;69.60
42227;DHT22;27892;52.378;13.122;2022-12-18T13:46:50;-0.10;68.80
42227;DHT22;27892;52.378;13.122;2022-12-18T13:51:56;-0.20;71.00
42227;DHT22;27892;52.378;13.122;2022-12-18T13:54:37;-0.10;70.20
42227;DHT22;27892;52.378;13.122;2022-12-18T13:57:22;-0.20;70.10
42227;DHT22;27892;52.378;13.122;2022-12-18T13:59:50;-0.20;69.90
42227;DHT22;27892;52.378;13.122;2022-12-18T14:02:20;-0.30;70.50
42227;DHT22;27892;52.378;13.122;2022-12-18T14:04:47;-0.30;69.70
42227;DHT22;27892;52.378;13.122;2022-12-18T14:07:16;-0.10;70.00
42227;DHT22;27892;52.378;13.122;2022-12-18T14:09:50;0.10;69.70
42227;DHT22;27892;52.378;13.122;2022-12-18T14:15:03;-0.10;69.60
42227;DHT22;27892;52.378;13.122;2022-12-18T14:17:31;-0.20;69.60
42227;DHT22;27892;52.378;13.122;2022-12-18T14:19:57;-0.10;69.70
42227;DHT22;27892;52.378;13.122;2022-12-18T14:22:26;-0.10;69.10
42227;DHT22;27892;52.378;13.122;2022-12-18T14:25:14;-0.10;68.80
42227;DHT22;27892;52.378;13.122;2022-12-18T14:27:48;-0.30;68.50
42227;DHT22;27892;52.378;13.122;2022-12-18T14:30:25;-0.50;70.00
42227;DHT22;27892;52.378;13.122;2022-12-18T14:33:14;-0.40;70.10
42227;DHT22;27892;52.378;13.122;2022-12-18T14:35:42;-0.50;69.40
42227;DHT22;27892;52.378;13.122;2022-12-18T14:38:35;-0.30;69.80
42227;DHT22;27892;52.378;13.122;2022-12-18T14:41:05;0.10;69.70
42227;DHT22;27892;52.378;13.122;2022-12-18T14:43:34;-0.10;68.60
42227;DHT22;27892;52.378;13.122;2022-12-18T14:46:00;-0.10;69.30
42227;DHT22;27892;52.378;13.122;2022-12-18T14:53:44;-0.50;68.50
42227;DHT22;27892;52.378;13.122;2022-12-18T14:56:21;-0.70;69.40
42227;DHT22;27892;52.378;13.122;2022-12-18T14:58:54;-0.90;69.90
42227;DHT22;27892;52.378;13.122;2022-12-18T15:02:17;-0.80;69.90
42227;DHT22;27892;52.378;13.122;2022-12-18T15:04:35;-0.80;70.20
42227;DHT22;27892;52.378;13.122;2022-12-18T15:09:43;-0.90;70.10
42227;DHT22;27892;52.378;13.122;2022-12-18T15:12:33;-0.80;70.40
42227;DHT22;27892;52.378;13.122;2022-12-18T15:14:59;-0.70;69.50
42227;DHT22;27892;52.378;13.122;2022-12-18T15:17:24;-0.60;69.90
42227;DHT22;27892;52.378;13.122;2022-12-18T15:19:53;-0.70;69.90
42227;DHT22;27892;52.378;13.122;2022-12-18T15:22:35;-0.50;69.60
42227;DHT22;27892;52.378;13.122;2022-12-18T15:25:02;-0.40;69.20
42227;DHT22;27892;52.378;13.122;2022-12-18T15:27:30;-0.30;69.10
42227;DHT22;27892;52.378;13.122;2022-12-18T15:32:32;-0.20;68.50
42227;DHT22;27892;52.378;13.122;2022-12-18T15:35:25;-0.30;67.70
42227;DHT22;27892;52.378;13.122;2022-12-18T15:37:51;-0.60;67.50
42227;DHT22;27892;52.378;13.122;2022-12-18T15:40:20;-0.80;68.40
42227;DHT22;27892;52.378;13.122;2022-12-18T15:42:46;-0.90;69.30
42227;DHT22;27892;52.378;13.122;2022-12-18T15:45:31;-0.90;69.60
42227;DHT22;27892;52.378;13.122;2022-12-18T15:47:57;-0.80;69.50
42227;DHT22;27892;52.378;13.122;2022-12-18T15:50:23;-0.70;68.80
42227;DHT22;27892;52.378;13.122;2022-12-18T15:52:51;-0.60;68.30
42227;DHT22;27892;52.378;13.122;2022-12-18T15:55:20;-0.60;68.40
42227;DHT22;27892;52.378;13.122;2022-12-18T15:58:05;-0.50;68.10
42227;DHT22;27892;52.378;13.122;2022-12-18T16:00:33;-0.70;68.30
42227;DHT22;27892;52.378;13.122;2022-12-18T16:02:59;-0.50;69.50
42227;DHT22;27892;52.378;13.122;2022-12-18T16:05:26;-0.30;68.20
42227;DHT22;27892;52.378;13.122;2022-12-18T16:07:52;-0.60;67.80
42227;DHT22;27892;52.378;13.122;2022-12-18T16:10:17;-0.40;68.50
42227;DHT22;27892;52.378;13.122;2022-12-18T16:12:43;-0.50;67.60
42227;DHT22;27892;52.378;13.122;2022-12-18T16:15:14;-0.40;67.90
42227;DHT22;27892;52.378;13.122;2022-12-18T16:17:42;-0.40;67.70
42227;DHT22;27892;52.378;13.122;2022-12-18T16:20:20;-0.50;67.50
42227;DHT22;27892;52.378;13.122;2022-12-18T16:22:46;-0.80;67.70
42227;DHT22;27892;52.378;13.122;2022-12-18T16:25:24;-0.90;68.50
42227;DHT22;27892;52.378;13.122;2022-12-18T16:27:50;-0.90;69.70
42227;DHT22;27892;52.378;13.122;2022-12-18T16:30:21;-0.70;69.50
42227;DHT22;27892;52.378;13.122;2022-12-18T16:32:48;-0.70;69.10
42227;DHT22;27892;52.378;13.122;2022-12-18T16:35:14;-0.80;69.30
42227;DHT22;27892;52.378;13.122;2022-12-18T16:37:41;-0.70;68.70
42227;DHT22;27892;52.378;13.122;2022-12-18T16:40:09;-0.60;68.70
42227;DHT22;27892;52.378;13.122;2022-12-18T16:42:35;-0.50;68.40
42227;DHT22;27892;52.378;13.122;2022-12-18T16:45:02;-0.40;67.80
42227;DHT22;27892;52.378;13.122;2022-12-18T16:47:28;-0.60;67.20
42227;DHT22;27892;52.378;13.122;2022-12-18T16:49:54;-0.80;68.80
42227;DHT22;27892;52.378;13.122;2022-12-18T16:52:20;-0.80;68.80
42227;DHT22;27892;52.378;13.122;2022-12-18T16:54:46;-0.80;68.90
42227;DHT22;27892;52.378;13.122;2022-12-18T16:57:14;-0.70;69.00
42227;DHT22;27892;52.378;13.122;2022-12-18T16:59:40;-0.60;68.70
42227;DHT22;27892;52.378;13.122;2022-12-18T17:02:10;-0.80;68.70
42227;DHT22;27892;52.378;13.122;2022-12-18T17:04:37;-0.80;68.80
42227;DHT22;27892;52.378;13.122;2022-12-18T17:07:03;-0.70;68.60
42227;DHT22;27892;52.378;13.122;2022-12-18T17:09:29;-0.90;69.10
42227;DHT22;27892;52.378;13.122;2022-12-18T17:11:55;-0.90;68.60
42227;DHT22;27892;52.378;13.122;2022-12-18T17:14:22;-0.90;68.50
42227;DHT22;27892;52.378;13.122;2022-12-18T17:16:48;-0.90;68.60
42227;DHT22;27892;52.378;13.122;2022-12-18T17:19:14;-0.90;68.40
42227;DHT22;27892;52.378;13.122;2022-12-18T17:21:42;-1.10;68.60
42227;DHT22;27892;52.378;13.122;2022-12-18T17:24:08;-1.10;68.90
42227;DHT22;27892;52.378;13.122;2022-12-18T17:26:33;-1.30;69.00
42227;DHT22;27892;52.378;13.122;2022-12-18T17:28:59;-1.40;69.20
42227;DHT22;27892;52.378;13.122;2022-12-18T17:31:27;-1.30;69.50
42227;DHT22;27892;52.378;13.122;2022-12-18T17:33:53;-1.20;68.90